Time;durP1;ratioP1;P1;durP2;ratioP2;P2;SDS_P1;SDS_P2;PMS_P1;PMS_P2;Temp;Humidity;BMP_temperature;BMP_pressure;BME280_temperature;BME280_humidity;BME280_pressure;Samples;Min_cycle;Max_cycle;Signal;HPM_P1;HPM_P2
2023/06/12 00:01:22;;;;;;;;;;;18.30;44.10;;;;;;5052690;28;19909;-71
2023/06/12 00:03:48;;;;;;;;;;;18.20;44.30;;;;;;5052436;28;19924;-70
2023/06/12 00:06:15;;;;;;;;;;;18.20;44.40;;;;;;5052433;28;19913;-71
2023/06/12 00:08:41;;;;;;;;;;;18.20;44.40;;;;;;5052498;28;19923;-71
2023/06/12 00:11:09;;;;;;;;;;;18.10;44.50;;;;;;5052380;28;19912;-71
2023/06/12 00:13:38;;;;;;;;;;;18.00;44.70;;;;;;5052261;28;19915;-72
2023/06/12 00:16:03;;;;;;;;;;;18.00;44.90;;;;;;5051204;28;19909;-71
2023/06/12 00:18:29;;;;;;;;;;;17.90;45.00;;;;;;5052479;28;20387;-71
2023/06/12 00:20:55;;;;;;;;;;;18.00;45.00;;;;;;5052166;28;19909;-72
2023/06/12 00:23:20;;;;;;;;;;;17.80;45.00;;;;;;5052269;28;19912;-71
2023/06/12 00:25:46;;;;;;;;;;;17.80;45.10;;;;;;5052055;28;20280;-71
2023/06/12 00:28:11;;;;;;;;;;;17.70;45.20;;;;;;5051004;28;20006;-72
2023/06/12 00:30:36;;;;;;;;;;;17.70;45.40;;;;;;5052502;28;19928;-72
2023/06/12 00:33:02;;;;;;;;;;;17.60;45.60;;;;;;5051937;28;19913;-72
2023/06/12 00:35:27;;;;;;;;;;;17.60;45.80;;;;;;5053787;28;19924;-72
2023/06/12 00:37:53;;;;;;;;;;;17.50;46.00;;;;;;5072094;28;19942;-72
2023/06/12 00:40:18;;;;;;;;;;;17.50;46.10;;;;;;5071576;28;20383;-71
2023/06/12 00:42:47;;;;;;;;;;;17.50;46.60;;;;;;5071695;28;20007;-71
2023/06/12 00:45:13;;;;;;;;;;;17.50;46.70;;;;;;5072289;28;19923;-72
2023/06/12 00:47:38;;;;;;;;;;;17.50;46.70;;;;;;5071783;28;19916;-72
2023/06/12 00:50:04;;;;;;;;;;;17.50;46.60;;;;;;5070461;28;19916;-72
2023/06/12 00:52:34;;;;;;;;;;;17.40;46.80;;;;;;5071969;28;19940;-72
2023/06/12 00:55:00;;;;;;;;;;;17.40;46.90;;;;;;5072275;28;20006;-72
2023/06/12 00:57:27;;;;;;;;;;;17.40;46.90;;;;;;5070775;28;20261;-71
2023/06/12 00:59:53;;;;;;;;;;;17.40;46.90;;;;;;5071897;28;19963;-71
2023/06/12 01:02:18;;;;;;;;;;;17.40;46.90;;;;;;5071852;28;20340;-71
2023/06/12 01:04:46;;;;;;;;;;;17.30;46.90;;;;;;5071673;28;19955;-71
2023/06/12 01:07:23;;;;;;;;;;;17.30;47.30;;;;;;5071626;28;19908;-71
2023/06/12 01:09:54;;;;;;;;;;;17.30;47.50;;;;;;5070227;28;19923;-70
2023/06/12 01:12:20;;;;;;;;;;;17.20;47.90;;;;;;5071602;28;19915;-71
2023/06/12 01:14:45;;;;;;;;;;;17.20;48.00;;;;;;5071666;28;19916;-71
2023/06/12 01:17:11;;;;;;;;;;;17.20;48.20;;;;;;5071610;28;20379;-71
2023/06/12 01:19:36;;;;;;;;;;;17.20;48.30;;;;;;5071718;28;19967;-71
2023/06/12 01:22:05;;;;;;;;;;;17.10;48.30;;;;;;5054161;28;19913;-71
2023/06/12 01:24:42;;;;;;;;;;;17.00;48.30;;;;;;5050088;28;19960;-72
2023/06/12 01:27:14;;;;;;;;;;;17.00;48.80;;;;;;5051262;28;19913;-72
2023/06/12 01:29:45;;;;;;;;;;;17.00;49.20;;;;;;5051667;28;20401;-72
2023/06/12 01:32:15;;;;;;;;;;;17.00;49.80;;;;;;5051173;28;19908;-71
2023/06/12 01:34:50;;;;;;;;;;;17.00;49.60;;;;;;5051579;28;19916;-72
2023/06/12 01:37:43;;;;;;;;;;;16.90;49.50;;;;;;5067093;28;19962;-71
2023/06/12 01:40:10;;;;;;;;;;;16.90;49.80;;;;;;5071570;28;19921;-71
2023/06/12 01:42:35;;;;;;;;;;;16.80;49.70;;;;;;5069924;28;19960;-71
2023/06/12 01:45:01;;;;;;;;;;;16.80;49.50;;;;;;5071413;28;20382;-71
2023/06/12 01:47:27;;;;;;;;;;;16.80;49.90;;;;;;5071096;28;19909;-71
2023/06/12 01:49:52;;;;;;;;;;;16.80;49.90;;;;;;5071391;28;20007;-72
2023/06/12 01:52:18;;;;;;;;;;;16.80;49.90;;;;;;5074179;28;19999;-71
2023/06/12 01:54:49;;;;;;;;;;;16.80;49.80;;;;;;5074957;28;19916;-71
2023/06/12 01:57:15;;;;;;;;;;;16.70;49.70;;;;;;5073489;28;19909;-71
2023/06/12 01:59:41;;;;;;;;;;;16.70;49.80;;;;;;5075327;28;20394;-72
2023/06/12 02:02:06;;;;;;;;;;;16.70;50.00;;;;;;5075019;28;19908;-71
2023/06/12 02:04:31;;;;;;;;;;;16.70;50.40;;;;;;5074752;28;20272;-71
2023/06/12 02:06:57;;;;;;;;;;;16.60;50.50;;;;;;5074626;28;19913;-71
2023/06/12 02:09:23;;;;;;;;;;;16.60;50.50;;;;;;5074899;28;20382;-71
2023/06/12 02:11:48;;;;;;;;;;;16.60;50.50;;;;;;5074527;28;19909;-70
2023/06/12 02:14:14;;;;;;;;;;;16.50;50.50;;;;;;5074503;28;20019;-71
2023/06/12 02:16:39;;;;;;;;;;;16.50;50.80;;;;;;5074550;28;19916;-70
2023/06/12 02:19:04;;;;;;;;;;;16.50;50.80;;;;;;5074376;28;20033;-70
2023/06/12 02:21:30;;;;;;;;;;;16.50;50.60;;;;;;5061552;28;20372;-71
2023/06/12 02:23:55;;;;;;;;;;;16.50;50.50;;;;;;5054188;28;19916;-71
2023/06/12 02:26:22;;;;;;;;;;;16.40;50.80;;;;;;5054295;28;19909;-70
2023/06/12 02:29:05;;;;;;;;;;;16.40;50.80;;;;;;5054199;28;19956;-70
2023/06/12 02:31:30;;;;;;;;;;;16.30;50.70;;;;;;5054139;28;20328;-71
2023/06/12 02:33:55;;;;;;;;;;;16.30;50.70;;;;;;5054134;28;19955;-70
2023/06/12 02:36:21;;;;;;;;;;;16.30;50.80;;;;;;5062385;28;19909;-70
2023/06/12 02:38:46;;;;;;;;;;;16.20;50.70;;;;;;5073902;28;20023;-70
2023/06/12 02:41:12;;;;;;;;;;;16.20;51.10;;;;;;5074113;28;20014;-70
2023/06/12 02:43:38;;;;;;;;;;;16.20;51.10;;;;;;5073889;28;19974;-70
2023/06/12 02:46:03;;;;;;;;;;;16.20;51.20;;;;;;5074041;28;20003;-70
2023/06/12 02:48:29;;;;;;;;;;;16.20;51.20;;;;;;5073831;28;19955;-70
2023/06/12 02:50:54;;;;;;;;;;;16.10;51.40;;;;;;5074341;28;19912;-71
2023/06/12 02:53:20;;;;;;;;;;;16.10;51.50;;;;;;5073808;28;19956;-71
2023/06/12 02:55:45;;;;;;;;;;;16.10;51.50;;;;;;5073947;28;19964;-70
2023/06/12 02:58:11;;;;;;;;;;;16.10;51.50;;;;;;5073895;28;19915;-70
2023/06/12 03:00:36;;;;;;;;;;;16.00;51.60;;;;;;5074101;28;19920;-70
2023/06/12 03:03:02;;;;;;;;;;;16.00;51.60;;;;;;5072783;28;19919;-70
2023/06/12 03:05:28;;;;;;;;;;;16.00;52.00;;;;;;5074131;28;19939;-71
2023/06/12 03:07:54;;;;;;;;;;;16.10;52.30;;;;;;5073446;28;20367;-72
2023/06/12 03:10:20;;;;;;;;;;;16.00;52.10;;;;;;5074051;28;19913;-70
2023/06/12 03:12:45;;;;;;;;;;;16.00;52.00;;;;;;5073526;28;19913;-71
2023/06/12 03:15:14;;;;;;;;;;;16.00;51.90;;;;;;5073663;28;19912;-71
2023/06/12 03:17:40;;;;;;;;;;;16.00;52.00;;;;;;5073139;28;19947;-71
2023/06/12 03:20:06;;;;;;;;;;;16.00;52.00;;;;;;5072475;28;20025;-71
2023/06/12 03:22:31;;;;;;;;;;;16.00;52.00;;;;;;5052718;28;20384;-70
2023/06/12 03:24:57;;;;;;;;;;;16.00;52.10;;;;;;5053404;28;19928;-69
2023/06/12 03:27:22;;;;;;;;;;;16.00;52.10;;;;;;5053042;28;19909;-70
2023/06/12 03:29:48;;;;;;;;;;;16.10;52.20;;;;;;5053096;28;19924;-70
2023/06/12 03:32:13;;;;;;;;;;;16.10;52.30;;;;;;5052842;28;20292;-70
2023/06/12 03:34:39;;;;;;;;;;;16.20;52.30;;;;;;5053176;28;19964;-70
2023/06/12 03:37:04;;;;;;;;;;;16.20;52.20;;;;;;5061512;28;20009;-70
2023/06/12 03:39:30;;;;;;;;;;;16.30;52.30;;;;;;5072941;28;20308;-71
2023/06/12 03:41:56;;;;;;;;;;;16.40;52.50;;;;;;5072537;28;19919;-70
2023/06/12 03:44:22;;;;;;;;;;;16.60;52.70;;;;;;5072830;28;19970;-71
2023/06/12 03:46:47;;;;;;;;;;;16.80;52.80;;;;;;5072699;28;20315;-70
2023/06/12 03:49:13;;;;;;;;;;;17.10;53.10;;;;;;5052847;28;19921;-70
2023/06/12 03:51:38;;;;;;;;;;;17.30;53.00;;;;;;5052511;28;19913;-70
2023/06/12 03:54:05;;;;;;;;;;;17.60;52.90;;;;;;5052499;28;19917;-71
2023/06/12 03:56:30;;;;;;;;;;;17.80;52.80;;;;;;5052452;28;19909;-72
2023/06/12 03:58:55;;;;;;;;;;;18.10;52.60;;;;;;5052376;28;19921;-71
2023/06/12 04:01:21;;;;;;;;;;;18.30;52.50;;;;;;5052856;28;19916;-70
2023/06/12 04:03:48;;;;;;;;;;;18.60;52.50;;;;;;5034439;28;20304;-71
2023/06/12 04:06:16;;;;;;;;;;;18.90;52.60;;;;;;5052468;28;20007;-71
2023/06/12 04:08:44;;;;;;;;;;;19.20;52.70;;;;;;5052488;28;19917;-71
2023/06/12 04:11:13;;;;;;;;;;;19.40;52.60;;;;;;5052421;28;19915;-71
2023/06/12 04:13:39;;;;;;;;;;;19.80;52.40;;;;;;5052552;28;20295;-71
2023/06/12 04:16:05;;;;;;;;;;;20.10;52.00;;;;;;5051946;28;19915;-71
2023/06/12 04:18:30;;;;;;;;;;;20.40;51.70;;;;;;5052011;28;19948;-72
2023/06/12 04:20:57;;;;;;;;;;;20.80;51.50;;;;;;5052019;28;19909;-72
2023/06/12 04:23:29;;;;;;;;;;;21.20;51.20;;;;;;5052322;28;20387;-71
2023/06/12 04:26:04;;;;;;;;;;;21.60;50.80;;;;;;5052678;28;19909;-72
2023/06/12 04:28:33;;;;;;;;;;;22.00;50.20;;;;;;5052342;28;19988;-71
2023/06/12 04:30:59;;;;;;;;;;;22.40;49.40;;;;;;5052044;28;19909;-71
2023/06/12 04:33:32;;;;;;;;;;;22.80;48.60;;;;;;5052099;28;19909;-72
2023/06/12 04:35:58;;;;;;;;;;;23.10;47.70;;;;;;5056979;28;19919;-72
2023/06/12 04:38:25;;;;;;;;;;;23.50;47.30;;;;;;5055458;28;19920;-71
2023/06/12 04:40:51;;;;;;;;;;;23.80;47.20;;;;;;5050993;28;19995;-72
2023/06/12 04:43:19;;;;;;;;;;;24.30;46.60;;;;;;5051665;28;20415;-72
2023/06/12 04:45:45;;;;;;;;;;;24.60;45.90;;;;;;5051806;28;19966;-72
2023/06/12 04:48:11;;;;;;;;;;;25.00;45.20;;;;;;5051673;28;20257;-72
2023/06/12 04:50:36;;;;;;;;;;;25.40;44.50;;;;;;5052374;28;20287;-72
2023/06/12 04:53:02;;;;;;;;;;;25.80;43.50;;;;;;5033836;28;19916;-72
2023/06/12 04:55:28;;;;;;;;;;;26.20;42.60;;;;;;5052537;28;19921;-72
2023/06/12 04:57:54;;;;;;;;;;;26.60;42.50;;;;;;5025801;28;19952;-73
2023/06/12 05:00:20;;;;;;;;;;;26.90;41.60;;;;;;5038928;28;19975;-72
2023/06/12 05:02:49;;;;;;;;;;;27.20;40.90;;;;;;5051544;28;20379;-72
2023/06/12 05:05:15;;;;;;;;;;;27.60;40.30;;;;;;5055424;28;19924;-73
2023/06/12 05:07:45;;;;;;;;;;;28.00;39.50;;;;;;5058516;28;20304;-73
2023/06/12 05:10:10;;;;;;;;;;;28.30;38.90;;;;;;5051305;28;19917;-72
2023/06/12 05:12:36;;;;;;;;;;;28.70;38.10;;;;;;5051156;28;19935;-73
2023/06/12 05:15:02;;;;;;;;;;;29.00;37.50;;;;;;5052075;28;19943;-73
2023/06/12 05:17:31;;;;;;;;;;;29.30;37.20;;;;;;5052044;28;19913;-72
2023/06/12 05:19:57;;;;;;;;;;;29.70;36.70;;;;;;5051057;28;19920;-72
2023/06/12 05:22:22;;;;;;;;;;;30.10;35.90;;;;;;5050991;28;19916;-72
2023/06/12 05:24:48;;;;;;;;;;;30.40;35.30;;;;;;5051449;28;19916;-72
2023/06/12 05:27:13;;;;;;;;;;;30.80;34.90;;;;;;5053274;28;19913;-73
2023/06/12 05:29:38;;;;;;;;;;;31.20;34.50;;;;;;5055402;28;20018;-71
2023/06/12 05:32:05;;;;;;;;;;;31.60;33.90;;;;;;5054315;28;19990;-71
2023/06/12 05:34:30;;;;;;;;;;;31.90;33.20;;;;;;5053774;28;20380;-72
2023/06/12 05:36:56;;;;;;;;;;;32.30;32.60;;;;;;5063990;28;19956;-72
2023/06/12 05:39:21;;;;;;;;;;;32.60;32.00;;;;;;5055421;28;20395;-72
2023/06/12 05:41:47;;;;;;;;;;;32.90;31.60;;;;;;5036847;28;19913;-72
2023/06/12 05:44:12;;;;;;;;;;;33.30;31.20;;;;;;5051564;28;20375;-72
2023/06/12 05:46:38;;;;;;;;;;;33.60;30.70;;;;;;5038297;28;19914;-72
2023/06/12 05:49:03;;;;;;;;;;;34.00;30.20;;;;;;5055470;28;20007;-72
2023/06/12 05:51:29;;;;;;;;;;;34.30;29.60;;;;;;5054374;28;19955;-73
2023/06/12 05:53:55;;;;;;;;;;;34.70;29.10;;;;;;5051065;28;19952;-73
2023/06/12 05:56:22;;;;;;;;;;;35.00;28.80;;;;;;5055064;28;19962;-72
2023/06/12 05:58:47;;;;;;;;;;;35.40;28.50;;;;;;5053380;28;20368;-73
2023/06/12 06:01:16;;;;;;;;;;;35.80;28.10;;;;;;5054542;28;20022;-73
2023/06/12 06:03:45;;;;;;;;;;;36.20;27.20;;;;;;5051052;28;19921;-73
2023/06/12 06:06:17;;;;;;;;;;;36.40;26.60;;;;;;5052950;28;19916;-73
2023/06/12 06:08:42;;;;;;;;;;;36.80;26.10;;;;;;5053191;28;19971;-74
2023/06/12 06:11:08;;;;;;;;;;;37.10;25.70;;;;;;5045779;28;19956;-73
2023/06/12 06:13:33;;;;;;;;;;;37.40;25.50;;;;;;5050681;28;19909;-73
2023/06/12 06:15:59;;;;;;;;;;;37.80;25.20;;;;;;5052171;28;19919;-71
2023/06/12 06:18:24;;;;;;;;;;;38.10;24.60;;;;;;5034402;28;20261;-73
2023/06/12 06:20:50;;;;;;;;;;;38.30;24.40;;;;;;5050656;28;19932;-72
2023/06/12 06:23:16;;;;;;;;;;;38.50;24.20;;;;;;5050329;28;19909;-73
2023/06/12 06:25:41;;;;;;;;;;;38.80;24.00;;;;;;5050732;28;19943;-72
2023/06/12 06:28:06;;;;;;;;;;;39.10;23.70;;;;;;5051915;28;20408;-72
2023/06/12 06:30:32;;;;;;;;;;;39.30;23.60;;;;;;5043700;28;20366;-72
2023/06/12 06:32:58;;;;;;;;;;;39.50;23.10;;;;;;5044774;28;20364;-73
2023/06/12 06:35:23;;;;;;;;;;;39.80;23.00;;;;;;5048325;28;19921;-73
2023/06/12 06:37:49;;;;;;;;;;;40.00;22.20;;;;;;5039421;28;19909;-73
2023/06/12 06:40:15;;;;;;;;;;;40.00;21.50;;;;;;5043323;28;20296;-72
2023/06/12 06:42:40;;;;;;;;;;;40.00;20.90;;;;;;5050965;28;19917;-72
2023/06/12 06:45:07;;;;;;;;;;;40.00;21.00;;;;;;5053868;28;19916;-72
2023/06/12 06:47:33;;;;;;;;;;;40.00;20.20;;;;;;5052546;28;19955;-73
2023/06/12 06:49:59;;;;;;;;;;;39.70;20.40;;;;;;5053959;28;20382;-72
2023/06/12 06:52:24;;;;;;;;;;;39.50;20.30;;;;;;5053237;28;19909;-72
2023/06/12 06:54:50;;;;;;;;;;;39.50;20.80;;;;;;5052940;28;20430;-72
2023/06/12 06:57:15;;;;;;;;;;;39.70;20.70;;;;;;5051162;28;19992;-72
2023/06/12 06:59:41;;;;;;;;;;;40.00;20.80;;;;;;5053548;28;19924;-72
2023/06/12 07:02:06;;;;;;;;;;;40.40;20.70;;;;;;5037686;28;19962;-72
2023/06/12 07:04:32;;;;;;;;;;;40.70;20.40;;;;;;5050147;28;19917;-71
2023/06/12 07:06:57;;;;;;;;;;;41.10;20.30;;;;;;5051807;28;19964;-72
2023/06/12 07:09:24;;;;;;;;;;;41.30;20.10;;;;;;5049027;28;19917;-72
2023/06/12 07:11:50;;;;;;;;;;;41.50;19.90;;;;;;5030822;28;19958;-73
2023/06/12 07:14:16;;;;;;;;;;;41.70;19.70;;;;;;5050249;28;19925;-73
2023/06/12 07:16:41;;;;;;;;;;;41.80;19.60;;;;;;5053577;28;20174;-73
2023/06/12 07:19:07;;;;;;;;;;;41.80;19.30;;;;;;5052190;28;19931;-73
2023/06/12 07:21:32;;;;;;;;;;;41.70;19.40;;;;;;5051951;28;19912;-71
2023/06/12 07:23:58;;;;;;;;;;;41.80;19.70;;;;;;5052885;28;19916;-72
2023/06/12 07:26:23;;;;;;;;;;;42.10;19.40;;;;;;5050792;28;19991;-71
2023/06/12 07:28:49;;;;;;;;;;;42.40;19.30;;;;;;5049503;28;20349;-72
2023/06/12 07:31:15;;;;;;;;;;;42.60;19.10;;;;;;5033815;28;19920;-72
2023/06/12 07:33:41;;;;;;;;;;;42.70;19.10;;;;;;5052067;28;20023;-72
2023/06/12 07:36:07;;;;;;;;;;;42.90;19.20;;;;;;5059182;28;19909;-72
2023/06/12 07:38:32;;;;;;;;;;;43.00;18.80;;;;;;5065743;28;19917;-72
2023/06/12 07:40:58;;;;;;;;;;;43.00;18.60;;;;;;5035071;28;19942;-72
2023/06/12 07:43:23;;;;;;;;;;;43.10;18.50;;;;;;5051461;28;20008;-71
2023/06/12 07:45:49;;;;;;;;;;;43.10;18.20;;;;;;5052076;28;19920;-73
2023/06/12 07:48:14;;;;;;;;;;;43.00;18.30;;;;;;5051273;28;19909;-73
2023/06/12 07:50:42;;;;;;;;;;;43.20;18.40;;;;;;5052837;28;19923;-73
2023/06/12 07:53:08;;;;;;;;;;;43.20;18.50;;;;;;5051446;28;19979;-72
2023/06/12 07:55:34;;;;;;;;;;;43.30;18.30;;;;;;5052937;28;19921;-73
2023/06/12 07:58:00;;;;;;;;;;;43.50;18.30;;;;;;5052108;28;19916;-73
2023/06/12 08:00:26;;;;;;;;;;;43.80;18.10;;;;;;5051375;28;20356;-73
2023/06/12 08:02:58;;;;;;;;;;;43.80;18.10;;;;;;5051047;28;19913;-73
2023/06/12 08:05:26;;;;;;;;;;;43.90;17.60;;;;;;5052169;28;19917;-73
2023/06/12 08:07:52;;;;;;;;;;;43.80;17.90;;;;;;5052054;28;19913;-71
2023/06/12 08:10:17;;;;;;;;;;;43.80;17.90;;;;;;5051522;28;20407;-72
2023/06/12 08:12:43;;;;;;;;;;;43.80;17.90;;;;;;5051251;28;19913;-72
2023/06/12 08:15:08;;;;;;;;;;;43.60;17.50;;;;;;5045265;28;19917;-72
2023/06/12 08:17:36;;;;;;;;;;;43.30;17.70;;;;;;5043400;28;19912;-72
2023/06/12 08:20:08;;;;;;;;;;;43.00;17.70;;;;;;5045498;28;19925;-72
2023/06/12 08:22:33;;;;;;;;;;;42.80;17.70;;;;;;5043344;28;19959;-72
2023/06/12 08:25:00;;;;;;;;;;;42.80;17.90;;;;;;5040665;28;19975;-72
2023/06/12 08:27:26;;;;;;;;;;;42.80;17.70;;;;;;5025161;28;20365;-72
2023/06/12 08:29:51;;;;;;;;;;;42.80;17.80;;;;;;5044482;28;20248;-72
2023/06/12 08:32:17;;;;;;;;;;;42.70;18.10;;;;;;5044456;28;19965;-72
2023/06/12 08:34:42;;;;;;;;;;;42.60;18.00;;;;;;5042323;28;19917;-72
2023/06/12 08:37:08;;;;;;;;;;;42.60;17.90;;;;;;5046469;28;19917;-72
2023/06/12 08:39:33;;;;;;;;;;;42.70;17.80;;;;;;5047694;28;20015;-72
2023/06/12 08:41:59;;;;;;;;;;;43.00;17.70;;;;;;5051570;28;20008;-72
2023/06/12 08:44:25;;;;;;;;;;;43.10;17.30;;;;;;5033429;28;19917;-72
2023/06/12 08:46:55;;;;;;;;;;;43.20;17.20;;;;;;5051314;28;20325;-72
2023/06/12 08:49:20;;;;;;;;;;;43.10;17.00;;;;;;5049600;28;19924;-72
2023/06/12 08:51:48;;;;;;;;;;;43.00;17.20;;;;;;5050768;28;19913;-72
2023/06/12 08:54:14;;;;;;;;;;;43.00;17.30;;;;;;5051747;28;19917;-72
2023/06/12 08:56:41;;;;;;;;;;;42.90;17.00;;;;;;5050576;28;20352;-72
2023/06/12 08:59:06;;;;;;;;;;;42.50;17.20;;;;;;5047677;28;20426;-71
2023/06/12 09:01:33;;;;;;;;;;;42.40;17.70;;;;;;5050842;28;20008;-72
2023/06/12 09:04:00;;;;;;;;;;;42.50;17.40;;;;;;5050320;28;19924;-72
2023/06/12 09:06:26;;;;;;;;;;;42.70;17.10;;;;;;5050520;28;19941;-72
2023/06/12 09:08:52;;;;;;;;;;;42.80;16.60;;;;;;5045025;28;19955;-73
2023/06/12 09:11:17;;;;;;;;;;;42.70;16.70;;;;;;5050375;28;20347;-72
2023/06/12 09:13:42;;;;;;;;;;;42.80;16.70;;;;;;5041601;28;19928;-73
2023/06/12 09:16:12;;;;;;;;;;;42.90;17.00;;;;;;5047817;28;19917;-72
2023/06/12 09:18:47;;;;;;;;;;;42.90;16.70;;;;;;5046944;28;19928;-73
2023/06/12 09:21:13;;;;;;;;;;;43.00;16.70;;;;;;5051585;28;20395;-72
2023/06/12 09:23:40;;;;;;;;;;;42.80;16.90;;;;;;5044002;28;19947;-73
2023/06/12 09:26:15;;;;;;;;;;;42.80;16.70;;;;;;5041895;28;19927;-73
2023/06/12 09:28:41;;;;;;;;;;;42.80;16.90;;;;;;5046610;28;19920;-72
2023/06/12 09:31:06;;;;;;;;;;;42.80;16.00;;;;;;5050324;28;20375;-72
2023/06/12 09:33:32;;;;;;;;;;;42.50;16.10;;;;;;5042268;28;19912;-72
2023/06/12 09:35:58;;;;;;;;;;;42.40;15.60;;;;;;5050326;28;19921;-72
2023/06/12 09:38:28;;;;;;;;;;;42.30;15.80;;;;;;5032290;28;19920;-73
2023/06/12 09:40:55;;;;;;;;;;;42.20;15.80;;;;;;5044090;28;20281;-73
2023/06/12 09:43:20;;;;;;;;;;;42.10;16.10;;;;;;5043195;28;20387;-72
2023/06/12 09:45:49;;;;;;;;;;;42.00;15.90;;;;;;5051003;28;19967;-73
2023/06/12 09:48:14;;;;;;;;;;;41.90;16.00;;;;;;5049708;28;20004;-72
2023/06/12 09:50:40;;;;;;;;;;;42.00;16.10;;;;;;5050718;28;19971;-72
2023/06/12 09:53:07;;;;;;;;;;;42.20;15.90;;;;;;5042634;28;19982;-72
2023/06/12 09:55:33;;;;;;;;;;;42.20;15.10;;;;;;5045956;28;19913;-73
2023/06/12 09:57:59;;;;;;;;;;;42.20;15.50;;;;;;5044673;28;19935;-72
2023/06/12 10:00:25;;;;;;;;;;;42.30;15.70;;;;;;5031552;28;19995;-73
2023/06/12 10:02:53;;;;;;;;;;;42.20;15.50;;;;;;5046316;28;20012;-73
2023/06/12 10:05:27;;;;;;;;;;;41.50;15.90;;;;;;5049970;28;19952;-72
2023/06/12 10:07:58;;;;;;;;;;;40.80;16.60;;;;;;5043192;28;19913;-73
2023/06/12 10:10:23;;;;;;;;;;;40.40;17.20;;;;;;5048964;28;19962;-72
2023/06/12 10:12:50;;;;;;;;;;;40.50;17.10;;;;;;5054439;28;19921;-72
2023/06/12 10:15:16;;;;;;;;;;;40.40;16.80;;;;;;5053441;28;19919;-72
2023/06/12 10:17:41;;;;;;;;;;;40.20;17.10;;;;;;5053476;28;19924;-73
2023/06/12 10:20:10;;;;;;;;;;;40.10;17.20;;;;;;5054117;28;19917;-73
2023/06/12 10:22:35;;;;;;;;;;;39.70;17.60;;;;;;5050527;28;19932;-73
2023/06/12 10:25:01;;;;;;;;;;;39.70;17.40;;;;;;5051979;28;19996;-73
2023/06/12 10:27:27;;;;;;;;;;;39.80;17.20;;;;;;5054183;28;20249;-73
2023/06/12 10:29:57;;;;;;;;;;;39.90;16.40;;;;;;5036235;28;19959;-73
2023/06/12 10:32:22;;;;;;;;;;;40.00;16.40;;;;;;5053675;28;19959;-73
2023/06/12 10:34:48;;;;;;;;;;;40.00;15.90;;;;;;5053156;28;20344;-73
2023/06/12 10:37:21;;;;;;;;;;;39.90;15.80;;;;;;5054287;28;19920;-72
2023/06/12 10:39:47;;;;;;;;;;;40.00;15.70;;;;;;5059486;28;19957;-73
2023/06/12 10:42:12;;;;;;;;;;;40.20;15.50;;;;;;5055998;28;19928;-73
2023/06/12 10:44:38;;;;;;;;;;;40.10;15.30;;;;;;5029357;28;20327;-71
2023/06/12 10:47:04;;;;;;;;;;;40.00;15.70;;;;;;5053936;28;20371;-72
2023/06/12 10:49:30;;;;;;;;;;;40.20;15.70;;;;;;5050607;28;20303;-73
2023/06/12 10:51:57;;;;;;;;;;;40.20;15.60;;;;;;5051958;28;19924;-73
2023/06/12 10:54:26;;;;;;;;;;;40.40;15.80;;;;;;5050141;28;19909;-72
2023/06/12 10:56:58;;;;;;;;;;;40.40;15.50;;;;;;5050359;28;19927;-71
2023/06/12 10:59:32;;;;;;;;;;;40.30;15.60;;;;;;5032528;28;19928;-71
2023/06/12 11:01:58;;;;;;;;;;;40.30;15.80;;;;;;5049608;28;19921;-73
2023/06/12 11:04:23;;;;;;;;;;;40.30;15.60;;;;;;5047049;28;19920;-72
2023/06/12 11:06:49;;;;;;;;;;;40.30;15.60;;;;;;5045826;28;19949;-73
2023/06/12 11:09:15;;;;;;;;;;;40.20;15.60;;;;;;5049634;28;20004;-72
2023/06/12 11:11:41;;;;;;;;;;;40.30;15.60;;;;;;5053090;28;19921;-72
2023/06/12 11:14:07;;;;;;;;;;;40.40;15.60;;;;;;5049719;28;20339;-72
2023/06/12 11:16:39;;;;;;;;;;;40.60;15.60;;;;;;5051418;28;19970;-72
2023/06/12 11:19:08;;;;;;;;;;;40.70;15.60;;;;;;5053070;28;19913;-72
2023/06/12 11:21:39;;;;;;;;;;;40.80;15.30;;;;;;5052843;28;19921;-72
2023/06/12 11:24:05;;;;;;;;;;;40.60;15.10;;;;;;5037553;28;19954;-72
2023/06/12 11:26:32;;;;;;;;;;;40.20;15.30;;;;;;5052930;28;20019;-75
2023/06/12 11:29:13;;;;;;;;;;;40.20;15.70;;;;;;5034887;28;19909;-72
2023/06/12 11:31:40;;;;;;;;;;;40.10;15.80;;;;;;5052834;28;20403;-72
2023/06/12 11:34:06;;;;;;;;;;;40.00;15.90;;;;;;5049349;28;19948;-73
2023/06/12 11:36:32;;;;;;;;;;;39.90;16.10;;;;;;5047460;28;19982;-72
2023/06/12 11:38:57;;;;;;;;;;;40.00;16.30;;;;;;5072635;28;19917;-72
2023/06/12 11:41:23;;;;;;;;;;;40.00;16.10;;;;;;5072786;28;19916;-72
2023/06/12 11:43:48;;;;;;;;;;;39.90;16.40;;;;;;5069989;28;20265;-73
2023/06/12 11:46:13;;;;;;;;;;;39.90;16.30;;;;;;5052496;28;19920;-72
2023/06/12 11:48:39;;;;;;;;;;;39.90;16.00;;;;;;5052616;28;19919;-73
2023/06/12 11:51:05;;;;;;;;;;;40.00;16.00;;;;;;5052024;28;19924;-73
2023/06/12 11:53:31;;;;;;;;;;;39.80;15.50;;;;;;5051282;28;19913;-74
2023/06/12 11:55:58;;;;;;;;;;;39.40;15.50;;;;;;5052157;28;20014;-73
2023/06/12 11:58:31;;;;;;;;;;;38.90;15.70;;;;;;5052597;28;19909;-72
2023/06/12 12:00:57;;;;;;;;;;;38.70;16.00;;;;;;5033020;28;19924;-72
2023/06/12 12:03:23;;;;;;;;;;;38.60;15.90;;;;;;5034638;28;20265;-73
2023/06/12 12:05:50;;;;;;;;;;;38.60;15.70;;;;;;5051470;28;19977;-74
2023/06/12 12:08:16;;;;;;;;;;;38.40;15.60;;;;;;5036807;28;19921;-72
2023/06/12 12:10:44;;;;;;;;;;;38.30;15.40;;;;;;5050587;28;20458;-73
2023/06/12 12:13:11;;;;;;;;;;;38.10;15.30;;;;;;5050128;28;19913;-73
2023/06/12 12:15:40;;;;;;;;;;;38.00;15.20;;;;;;5052405;28;19931;-73
2023/06/12 12:18:10;;;;;;;;;;;37.80;15.10;;;;;;5050171;28;19916;-73
2023/06/12 12:20:35;;;;;;;;;;;37.80;15.20;;;;;;5036459;28;19923;-72
2023/06/12 12:23:02;;;;;;;;;;;37.50;14.70;;;;;;5052109;28;20368;-73
2023/06/12 12:25:29;;;;;;;;;;;37.30;14.90;;;;;;5048035;28;19955;-74
2023/06/12 12:27:55;;;;;;;;;;;37.20;15.40;;;;;;5049194;28;20332;-72
2023/06/12 12:30:21;;;;;;;;;;;37.30;15.70;;;;;;5052271;28;20000;-73
2023/06/12 12:32:48;;;;;;;;;;;37.40;15.70;;;;;;5051729;28;19916;-72
2023/06/12 12:35:14;;;;;;;;;;;37.30;15.30;;;;;;5048281;28;20023;-72
2023/06/12 12:37:40;;;;;;;;;;;37.10;15.50;;;;;;5052108;28;20012;-73
2023/06/12 12:40:09;;;;;;;;;;;37.10;15.60;;;;;;5050553;28;20384;-72
2023/06/12 12:42:35;;;;;;;;;;;37.10;15.90;;;;;;5050894;28;19931;-72
2023/06/12 12:45:01;;;;;;;;;;;37.20;15.90;;;;;;5042601;28;20011;-72
2023/06/12 12:47:26;;;;;;;;;;;37.30;15.70;;;;;;5049840;28;19925;-73
2023/06/12 12:49:52;;;;;;;;;;;37.30;15.60;;;;;;5051303;28;20422;-72
2023/06/12 12:52:17;;;;;;;;;;;37.40;15.70;;;;;;5052114;28;19946;-72
2023/06/12 12:54:43;;;;;;;;;;;37.30;15.30;;;;;;5050945;28;19917;-72
2023/06/12 12:57:09;;;;;;;;;;;37.20;15.10;;;;;;5052187;28;19924;-72
2023/06/12 12:59:34;;;;;;;;;;;37.10;15.30;;;;;;5036452;28;20373;-72
2023/06/12 13:02:00;;;;;;;;;;;37.00;15.50;;;;;;5051832;28;19923;-73
2023/06/12 13:04:25;;;;;;;;;;;37.00;15.60;;;;;;5033495;28;19950;-72
2023/06/12 13:06:51;;;;;;;;;;;36.90;15.80;;;;;;5051879;28;19923;-73
2023/06/12 13:09:17;;;;;;;;;;;37.00;15.80;;;;;;5043437;28;19909;-73
2023/06/12 13:11:42;;;;;;;;;;;37.00;15.90;;;;;;5051612;28;19962;-73
2023/06/12 13:14:08;;;;;;;;;;;37.00;15.80;;;;;;5047986;28;19916;-73
2023/06/12 13:16:34;;;;;;;;;;;36.90;15.90;;;;;;5051449;28;19917;-72
2023/06/12 13:18:59;;;;;;;;;;;36.80;15.80;;;;;;5050966;28;20245;-72
2023/06/12 13:21:25;;;;;;;;;;;36.70;15.70;;;;;;5051853;28;20265;-73
2023/06/12 13:23:51;;;;;;;;;;;36.60;16.00;;;;;;5047619;28;19913;-73
2023/06/12 13:26:16;;;;;;;;;;;36.50;16.00;;;;;;5051819;28;19924;-72
2023/06/12 13:28:42;;;;;;;;;;;36.50;15.80;;;;;;5050780;28;19912;-73
2023/06/12 13:31:07;;;;;;;;;;;36.40;15.90;;;;;;5051721;28;19979;-72
2023/06/12 13:33:32;;;;;;;;;;;36.40;15.90;;;;;;5047569;28;19916;-73
2023/06/12 13:35:58;;;;;;;;;;;36.40;16.10;;;;;;5056718;28;19928;-73
2023/06/12 13:38:23;;;;;;;;;;;36.30;16.40;;;;;;5061666;28;19909;-73
2023/06/12 13:40:50;;;;;;;;;;;36.20;16.40;;;;;;5051634;28;20245;-72
2023/06/12 13:43:16;;;;;;;;;;;36.20;16.90;;;;;;5047310;28;19931;-72
2023/06/12 13:45:41;;;;;;;;;;;36.30;16.80;;;;;;5050443;28;19936;-72
2023/06/12 13:48:07;;;;;;;;;;;36.40;16.60;;;;;;5052476;28;19916;-72
2023/06/12 13:50:32;;;;;;;;;;;36.30;16.60;;;;;;5054949;28;19912;-73
2023/06/12 13:52:58;;;;;;;;;;;36.10;16.80;;;;;;5048822;28;19959;-74
2023/06/12 13:55:23;;;;;;;;;;;35.90;16.80;;;;;;5053888;28;19908;-71
2023/06/12 13:57:49;;;;;;;;;;;35.80;17.10;;;;;;5046072;28;19917;-71
2023/06/12 14:00:14;;;;;;;;;;;35.80;17.10;;;;;;5044912;28;19921;-71
2023/06/12 14:02:40;;;;;;;;;;;35.80;17.10;;;;;;5044696;28;20442;-72
2023/06/12 14:05:06;;;;;;;;;;;35.80;17.10;;;;;;5045278;28;20403;-72
2023/06/12 14:07:32;;;;;;;;;;;35.80;17.20;;;;;;5047346;28;19917;-71
2023/06/12 14:09:58;;;;;;;;;;;35.80;17.00;;;;;;5050902;28;19987;-72
2023/06/12 14:12:24;;;;;;;;;;;35.60;17.10;;;;;;5048467;28;20000;-72